ポートオブスペイン の空港の天気 - METARとTAF

ピアルコ国際空港(ポートオブスペイン) ( TTPP / POS ) - トリニダード・トバゴ ポートオブスペイン (トリニダード島)
飛行場実況気象(Metar)
観測時間01/21 13:30 AST (01/21 17:30 UTC)
風向・風速東南東 6m/s 瞬間風速11m/s
視程3000m
天気現象しゅう雨
全天の4割程度の雲 雲底高度 490m
全天の4割程度の雲 雲底高度 1100m
気温27℃
湿度84%
気圧1012hPa
METARTTPP 211730Z 11011G21KT 3000 SHRA SCT016 SCT036 27/24 Q1012 NOSIG
過去の天気等 Google飛行場航空写真 Wunderground天気予報

過去48時間のMETAR

飛行場予報(TAF)
発表時間: 1/21 12:00 AST (1/21 16:00 UTC)
予報対象時間: 21日14時 AST ~ 22日14時 AST
風向・風速東南東 5m/s
視程10km以上
少しの雲 雲底高度 550m
全天の4割程度の雲 雲底高度 1,070m
21日14時 AST ~ 21日22時 AST に 確率 30% で一時的に
風向・風速東南東 8m/s 瞬間風速 13m/s
視程3,000m
天気現象しゅう雨
全天の8割程度の雲 雲底高度 460m
21日20時 AST ~ 21日24時 AST に徐々に
風向・風速静穏
22日6時 AST ~ 22日11時 AST に 確率 40% で一時的に
視程2,000m
天気現象しゅう雨
全天の8割程度の雲 雲底高度 460m
22日8時 AST ~ 22日11時 AST に徐々に
風向・風速東南東 5m/s
全天の4割程度の雲 雲底高度 610m
TAF TTPP 211600Z 2118/2218 12010KT 9999 FEW018 SCT035
PROB30 TEMPO 2118/2202 11015G25KT 3000 SHRA BKN015
BECMG 2200/2204 00000KT
PROB40 TEMPO 2210/2215 2000 SHRA BKN015
BECMG 2212/2215 11010KT SCT020